Currently 43°F in Anza, California, USA
43°F
46°F / 43°F
calm
0.00"
Saturday, April 4, 2020 1:55 AM PDT

Anza, California Weather Summary
Last 36 Hours

Temperature Winds Hourly Humidity Dewpoint
Time Report Norm Report Norm Max Gusts Precip. Rpt. Norm Rpt. Norm Pressure
1Sat 01:55 AM  42.8°F  45°F  calm  4 mph  none  0.00"  98%  79%  42°F  39°F  N/A
3Sat 01:52 AM  42.8°F  45°F  calm  4 mph  none  ----  98%  79%  42°F  39°F  N/A
Sat 01:00 AM  44.0°F  46°F  calm  4 mph  none  0.00"  98%  78%  43°F  39°F  N/A
2Sat 12:01 AM  45.6°F  46°F  calm  4 mph  none  ----  97%  79%  45°F  40°F  N/A
Sat 12:00 AM  45.6°F  46°F  calm  4 mph  14 mph  0.00"  97%  79%  45°F  40°F  N/A
Fri 11:00 PM  46.4°F  48°F  calm  4 mph  none  0.00"  98%  78%  46°F  41°F  N/A
Fri 10:00 PM  47.2°F  49°F  calm  5 mph  none  0.00"  98%  76%  47°F  42°F  N/A
Fri 09:00 PM  47.0°F  51°F  calm  5 mph  none  0.00"  98%  73%  46°F  42°F  N/A
Fri 08:00 PM  47.9°F  53°F  calm  5 mph  none  0.00"  98%  70%  47°F  43°F  N/A
Fri 07:00 PM  51.0°F  57°F  calm  7 mph  none  0.00"  93%  62%  49°F  44°F  N/A
Fri 06:00 PM  55.4°F  62°F  calm  10 mph  18 mph  0.00"  83%  51%  50°F  43°F  N/A
Fri 05:00 PM  58.4°F  65°F  calm  10 mph  16 mph  0.00"  74%  46%  50°F  43°F  N/A
Fri 04:00 PM  59.9°F  66°F  10 mph W  10 mph  17 mph  0.00"  65%  43%  48°F  42°F  N/A
Fri 03:00 PM  60.7°F  67°F  calm  11 mph  15 mph  0.00"  66%  40%  49°F  41°F  N/A
Fri 02:00 PM  60.5°F  67°F  calm  11 mph  15 mph  0.00"  68%  40%  50°F  41°F  N/A
Fri 01:00 PM  60.1°F  66°F  calm  10 mph  12 mph  0.00"  71%  40%  50°F  40°F  N/A
Fri 12:00 PM  59.5°F  65°F  calm  10 mph  none  0.00"  71%  41%  50°F  40°F  N/A
Fri 11:00 AM  57.7°F  64°F  calm  9 mph  none  0.00"  67%  43%  46°F  40°F  N/A
Fri 10:00 AM  53.9°F  61°F  calm  8 mph  none  0.00"  71%  49%  44°F  41°F  N/A
Fri 09:00 AM  49.8°F  57°F  calm  7 mph  none  0.00"  89%  57%  47°F  42°F  N/A
Fri 08:00 AM  46.7°F  51°F  calm  5 mph  none  0.00"  95%  70%  45°F  41°F  N/A
Fri 07:00 AM  44.1°F  44°F  calm  4 mph  none  0.00"  98%  79%  44°F  38°F  N/A
Fri 06:00 AM  43.0°F  44°F  calm  4 mph  none  0.00"  99%  79%  43°F  38°F  N/A
Fri 05:00 AM  44.1°F  44°F  calm  4 mph  none  0.00"  99%  79%  44°F  38°F  N/A
Fri 04:00 AM  45.1°F  44°F  calm  4 mph  none  0.00"  98%  78%  45°F  38°F  N/A
Fri 03:00 AM  44.5°F  45°F  calm  4 mph  none  0.00"  100%  79%  44°F  38°F  N/A
Fri 02:00 AM  45.3°F  45°F  calm  4 mph  none  0.00"  100%  79%  45°F  39°F  N/A
Fri 01:00 AM  45.0°F  46°F  calm  4 mph  none  0.00"  100%  78%  45°F  39°F  N/A
Fri 12:00 AM  46.2°F  46°F  calm  4 mph  none  0.00"  99%  78%  46°F  40°F  N/A
Thu 11:00 PM  47.1°F  48°F  calm  5 mph  none  0.00"  99%  78%  47°F  41°F  N/A
Thu 10:00 PM  47.9°F  49°F  calm  5 mph  none  0.00"  99%  75%  48°F  41°F  N/A
Thu 09:00 PM  45.2°F  51°F  calm  5 mph  none  0.00"  98%  72%  45°F  42°F  N/A
Thu 08:00 PM  47.9°F  53°F  calm  5 mph  none  0.00"  97%  69%  47°F  43°F  N/A
Thu 07:00 PM  52.1°F  57°F  calm  7 mph  none  0.00"  91%  61%  49°F  44°F  N/A
Thu 06:00 PM  56.9°F  62°F  calm  10 mph  none  0.00"  78%  51%  50°F  43°F  N/A
Thu 05:00 PM  58.5°F  65°F  calm  11 mph  none  0.00"  71%  45%  49°F  42°F  N/A
Thu 04:00 PM  59.4°F  66°F  calm  10 mph  none  0.00"  70%  42%  49°F  42°F  N/A
Thu 03:00 PM  59.6°F  67°F  calm  11 mph  16 mph  0.00"  72%  40%  50°F  41°F  N/A
Thu 02:00 PM  59.4°F  67°F  calm  11 mph  17 mph  0.00"  75%  39%  51°F  40°F  N/A

  1. Current weather data. No green row appears if the current weather data is also the high or low for the current day.
  2. High temperature for the current day.
  3. Low temperature for the current day.

The Anza, California weather pages are a service of WeatherCurrents. The Anza Valley is southwestern Riverside County, east of Temecula and Aguanga, south of Mount San Jacinto and west of Mount Santa Rosa.
Copyright ©2020  WeatherCurrents. All rights reserved. - Submit questions and comments - Privacy Policy

This page automatically refreshes every 10 minutes.